Time;durP1;ratioP1;P1;durP2;ratioP2;P2;SDS_P1;SDS_P2;PMS_P1;PMS_P2;Temp;Humidity;BMP_temperature;BMP_pressure;BME280_temperature;BME280_humidity;BME280_pressure;Samples;Min_cycle;Max_cycle;Signal;HPM_P1;HPM_P2
2022/08/28 00:00:39;;;;;;;17.23;14.52;;;19.20;99.90;;;22.10;62.90;97573.28;5008518;28;20068;-40
2022/08/28 00:03:09;;;;;;;21.17;14.13;;;19.20;99.90;;;22.13;62.96;97572.81;5007241;28;20256;-40
2022/08/28 00:05:40;;;;;;;17.30;13.75;;;19.20;99.90;;;22.16;62.73;97575.06;5007984;28;20049;-41
2022/08/28 00:08:12;;;;;;;17.48;14.10;;;19.30;99.90;;;22.18;62.62;97573.75;5009924;28;20795;-40
2022/08/28 00:10:41;;;;;;;16.80;14.27;;;19.30;99.90;;;22.18;62.42;97576.47;5008383;28;20244;-40
2022/08/28 00:13:17;;;;;;;17.88;14.15;;;19.30;99.90;;;22.17;62.85;97577.53;5008463;28;20045;-40
2022/08/28 00:15:49;;;;;;;20.25;15.32;;;19.30;99.90;;;22.18;63.09;97570.22;5008389;28;20240;-40
2022/08/28 00:18:17;;;;;;;17.23;12.85;;;19.30;99.90;;;22.18;62.74;97567.53;5006871;28;20060;-40
2022/08/28 00:20:47;;;;;;;17.70;14.10;;;19.30;99.90;;;22.21;62.60;97567.03;5006774;28;20064;-40
2022/08/28 00:23:15;;;;;;;18.02;13.80;;;19.40;99.90;;;22.23;62.71;97570.31;5006426;28;20057;-40
2022/08/28 00:25:43;;;;;;;17.27;13.88;;;19.40;99.90;;;22.21;62.64;97569.75;5008216;28;20221;-41
2022/08/28 00:28:12;;;;;;;16.38;13.13;;;19.40;99.90;;;22.21;62.93;97572.44;5007141;28;20064;-40
2022/08/28 00:30:54;;;;;;;19.00;13.52;;;19.40;99.90;;;22.22;62.80;97572.22;5006837;28;20038;-40
2022/08/28 00:33:26;;;;;;;19.63;13.80;;;19.40;99.90;;;22.22;62.70;97574.94;5007658;28;20046;-40
2022/08/28 00:35:55;;;;;;;17.20;13.95;;;19.40;99.90;;;22.24;63.08;97577.41;5007188;28;20075;-40
2022/08/28 00:38:26;;;;;;;13.98;12.48;;;19.40;99.90;;;22.26;62.89;97578.03;5007403;28;20060;-40
2022/08/28 00:41:00;;;;;;;16.05;13.15;;;19.50;99.90;;;22.27;62.67;97571.53;5006727;28;20057;-40
2022/08/28 00:43:46;;;;;;;17.75;12.63;;;19.50;99.90;;;22.28;62.95;97569.66;5007383;28;20049;-40
2022/08/28 00:46:22;;;;;;;16.55;12.90;;;19.50;99.90;;;22.30;62.63;97579.19;5008569;28;20048;-40
2022/08/28 00:48:49;;;;;;;18.13;13.18;;;19.50;99.90;;;22.30;62.73;97572.97;5007153;28;20049;-40
2022/08/28 00:54:07;;;;;;;17.85;14.18;;;19.50;99.90;;;22.28;63.06;97561.53;5007556;28;20060;-40
2022/08/28 00:56:38;;;;;;;17.02;12.45;;;19.50;99.90;;;22.24;63.08;97566.56;5006000;28;20064;-41
2022/08/28 00:59:14;;;;;;;18.20;13.40;;;19.50;99.90;;;22.26;62.89;97567.19;5004615;28;20062;-40
2022/08/28 01:01:44;;;;;;;19.90;13.77;;;19.50;99.90;;;22.20;62.96;97568.91;5006820;28;20046;-40
2022/08/28 01:04:18;;;;;;;17.63;13.15;;;19.40;99.90;;;22.18;63.03;97562.91;5007075;28;20058;-40
2022/08/28 01:06:52;;;;;;;17.25;13.98;;;19.40;99.90;;;22.14;63.08;97560.91;5006331;28;20045;-40
2022/08/28 01:09:24;;;;;;;20.73;13.82;;;19.40;99.90;;;22.10;62.82;97570.56;5004265;28;20352;-40
2022/08/28 01:11:58;;;;;;;19.42;15.15;;;19.30;99.90;;;22.06;63.03;97567.50;5005419;28;20376;-40
2022/08/28 01:14:27;;;;;;;;;;;19.20;99.90;;;22.17;62.42;97569.38;5007254;28;20274;-40
2022/08/28 01:16:56;;;;;;;19.65;13.60;;;19.20;99.90;;;22.11;62.53;97564.91;5005055;28;19925;-40
2022/08/28 01:19:42;;;;;;;19.80;14.70;;;19.10;99.90;;;22.05;62.99;97568.59;5006355;28;20050;-40
2022/08/28 01:22:37;;;;;;;20.85;15.27;;;19.20;99.90;;;22.02;62.97;97571.75;5005515;28;20061;-40
2022/08/28 01:25:13;;;;;;;23.02;15.27;;;19.20;99.90;;;21.98;63.03;97568.72;5005438;28;20311;-40
2022/08/28 01:27:41;;;;;;;21.05;16.23;;;19.10;99.90;;;21.90;63.27;97571.75;5005161;28;20049;-40
2022/08/28 01:30:18;;;;;;;22.17;16.38;;;19.00;99.90;;;21.87;63.29;97574.97;5006476;28;20248;-40
2022/08/28 01:32:51;;;;;;;21.70;15.77;;;19.00;99.90;;;21.85;63.13;97568.94;5006989;28;20057;-40
2022/08/28 01:35:28;;;;;;;22.35;15.80;;;19.00;99.90;;;21.86;62.97;97567.88;5007286;28;20057;-40
2022/08/28 01:37:57;;;;;;;20.05;15.65;;;19.00;99.90;;;21.86;62.97;97569.78;5006799;28;20049;-40
2022/08/28 01:40:34;;;;;;;20.08;15.50;;;19.00;99.90;;;21.85;63.09;97566.25;5006305;28;20068;-40
2022/08/28 01:43:19;;;;;;;21.60;16.73;;;19.10;99.90;;;21.86;63.39;97565.16;5006271;28;20045;-40
2022/08/28 01:45:51;;;;;;;22.55;15.70;;;19.10;99.90;;;21.85;63.39;97565.41;5006687;28;20044;-40
2022/08/28 01:48:23;;;;;;;25.27;17.00;;;19.00;99.90;;;21.83;63.32;97569.19;5005834;28;20054;-40
2022/08/28 01:50:51;;;;;;;22.65;17.20;;;19.00;99.90;;;21.82;62.88;97555.84;5007401;28;20467;-40
2022/08/28 01:53:23;;;;;;;24.95;17.63;;;19.00;99.90;;;21.78;63.37;97573.66;5006630;28;20050;-40
2022/08/28 01:55:53;;;;;;;24.05;17.17;;;19.00;99.90;;;21.77;63.35;97563.84;5008316;28;20248;-40
2022/08/28 01:58:23;;;;;;;21.45;16.25;;;18.90;99.90;;;21.75;63.26;97564.13;5004470;28;20060;-41
2022/08/28 02:00:54;;;;;;;25.88;18.95;;;19.00;99.90;;;21.74;63.40;97565.16;5005397;28;20061;-40
2022/08/28 02:03:23;;;;;;;24.63;17.98;;;18.90;99.90;;;21.73;63.73;97570.81;5007723;28;20062;-40
2022/08/28 02:05:51;;;;;;;22.45;17.35;;;19.00;99.90;;;21.74;63.26;97570.59;5006583;28;20053;-40
2022/08/28 02:08:20;;;;;;;24.65;17.25;;;19.00;99.90;;;21.74;63.65;97572.47;5007085;28;20050;-40
2022/08/28 02:10:48;;;;;;;27.58;17.80;;;19.00;99.90;;;21.75;63.33;97576.81;5006687;28;20065;-40
2022/08/28 02:13:15;;;;;;;25.92;19.08;;;19.00;99.90;;;21.75;63.19;97574.09;5005632;28;20058;-41
2022/08/28 02:15:44;;;;;;;29.00;18.60;;;18.90;99.90;;;21.74;63.05;97575.19;5007532;28;20048;-40
2022/08/28 02:18:13;;;;;;;26.35;17.63;;;19.00;99.90;;;21.73;63.49;97577.06;5005630;28;20049;-40
2022/08/28 02:20:41;;;;;;;25.63;17.75;;;18.90;99.90;;;21.72;63.18;97580.84;5006467;28;20358;-40
2022/08/28 02:23:10;;;;;;;29.05;18.67;;;18.90;99.90;;;21.72;63.55;97578.13;5006505;28;20045;-40
2022/08/28 02:25:38;;;;;;;26.48;18.80;;;18.90;99.90;;;21.73;63.35;97576.22;5007713;28;20062;-40
2022/08/28 02:28:06;;;;;;;24.15;17.63;;;18.90;99.90;;;21.76;63.68;97575.78;5005709;28;20054;-40
2022/08/28 02:30:35;;;;;;;27.63;18.90;;;18.90;99.90;;;21.76;63.42;97570.34;5007357;28;20056;-40
2022/08/28 02:33:03;;;;;;;31.40;20.00;;;18.90;99.90;;;21.77;63.68;97578.25;5006762;28;20081;-40
2022/08/28 02:35:31;;;;;;;25.63;19.33;;;18.90;99.90;;;21.77;63.70;97574.69;5005894;28;20038;-40
2022/08/28 02:38:00;;;;;;;33.65;21.80;;;19.00;99.90;;;21.76;63.59;97578.47;5006363;28;20058;-40
2022/08/28 02:40:28;;;;;;;29.80;20.48;;;18.90;99.90;;;21.77;63.67;97577.41;5005459;28;20042;-40
2022/08/28 02:42:57;;;;;;;26.63;19.65;;;18.90;99.90;;;21.79;63.44;97578.00;5007575;28;20060;-40
2022/08/28 02:45:24;;;;;;;25.63;19.88;;;19.00;99.90;;;21.80;63.45;97579.66;5008800;28;20053;-40
2022/08/28 02:47:55;;;;;;;31.92;20.15;;;19.00;99.90;;;21.81;63.83;97574.00;5009519;28;20046;-40
2022/08/28 02:50:23;;;;;;;28.58;18.52;;;19.00;99.90;;;21.81;63.48;97576.72;5009976;28;20060;-40
2022/08/28 02:52:52;;;;;;;30.13;19.65;;;19.00;99.90;;;21.83;63.76;97580.03;5009094;28;20052;-40
2022/08/28 02:55:21;;;;;;;28.65;19.10;;;19.00;99.90;;;21.83;63.88;97577.31;5009686;28;20089;-40
2022/08/28 02:57:50;;;;;;;24.50;18.35;;;19.00;99.90;;;21.82;63.67;97569.41;5009681;28;20058;-40
2022/08/28 03:00:23;;;;;;;25.65;19.35;;;19.00;99.90;;;21.83;63.50;97574.59;5009648;28;20088;-40
2022/08/28 03:02:51;;;;;;;25.67;18.45;;;19.00;99.90;;;21.85;63.67;97577.09;5007872;28;20232;-40
2022/08/28 03:05:23;;;;;;;24.58;17.88;;;19.10;99.90;;;21.87;63.79;97568.69;5009461;28;20116;-40
2022/08/28 03:07:52;;;;;;;23.33;17.58;;;19.10;99.90;;;21.86;63.37;97567.88;5010194;28;20069;-40
2022/08/28 03:10:21;;;;;;;27.23;18.52;;;19.10;99.90;;;21.87;63.41;97566.81;5009823;28;20222;-40
2022/08/28 03:12:49;;;;;;;23.08;17.83;;;19.10;99.90;;;21.88;63.18;97568.47;5009167;28;20055;-40
2022/08/28 03:15:17;;;;;;;25.58;17.60;;;19.10;99.90;;;21.87;63.23;97566.81;5007156;28;20237;-40
2022/08/28 03:17:45;;;;;;;26.25;19.00;;;19.10;99.90;;;21.87;63.48;97564.13;5007998;28;20076;-40
2022/08/28 03:20:15;;;;;;;23.08;17.67;;;19.10;99.90;;;21.89;63.55;97567.41;5007598;28;20046;-40
2022/08/28 03:25:29;;;;;;;24.77;16.52;;;19.10;99.90;;;21.94;63.37;97564.81;5007817;28;20550;-40
2022/08/28 03:27:57;;;;;;;28.33;19.13;;;19.10;99.90;;;21.94;63.63;97566.69;5009199;28;20057;-40
2022/08/28 03:30:26;;;;;;;26.30;17.90;;;19.10;99.90;;;21.93;63.11;97567.78;5008413;28;20049;-41
2022/08/28 03:32:53;;;;;;;25.15;17.85;;;19.10;99.90;;;21.93;63.53;97574.00;5008108;28;20236;-40
2022/08/28 03:35:22;;;;;;;26.20;17.77;;;19.10;99.90;;;21.95;63.22;97566.47;5007702;28;20046;-40
2022/08/28 03:37:50;;;;;;;30.20;18.75;;;19.10;99.90;;;21.96;63.49;97565.38;5008988;28;20049;-40
2022/08/28 03:40:19;;;;;;;24.27;17.05;;;19.20;99.90;;;21.98;63.26;97568.72;5008055;28;20050;-40
2022/08/28 03:42:47;;;;;;;23.95;17.85;;;19.20;99.90;;;22.03;63.50;97573.41;5008189;28;20056;-40
2022/08/28 03:45:20;;;;;;;23.10;16.98;;;19.20;99.90;;;22.08;63.06;97583.53;5009289;28;20060;-40
2022/08/28 03:47:48;;;;;;;26.45;18.05;;;19.20;99.90;;;22.08;63.32;97586.25;5008222;28;20038;-40
2022/08/28 03:50:18;;;;;;;28.15;19.85;;;19.20;99.90;;;22.09;63.32;97587.91;5008723;28;20062;-40
2022/08/28 03:52:46;;;;;;;27.27;18.88;;;19.20;99.90;;;22.12;63.11;97588.28;5009249;28;20120;-40
2022/08/28 03:55:14;;;;;;;29.92;19.58;;;19.30;99.90;;;22.11;63.13;97588.50;5008585;28;20050;-41
2022/08/28 03:57:42;;;;;;;26.23;19.13;;;19.30;99.90;;;22.11;63.34;97589.31;5008155;28;20061;-40
2022/08/28 04:00:12;;;;;;;31.35;18.73;;;19.30;99.90;;;22.11;63.53;97578.47;5008723;28;20045;-40
2022/08/28 04:02:41;;;;;;;26.15;19.48;;;19.30;99.90;;;22.12;63.61;97582.84;5006664;28;20060;-41
2022/08/28 04:05:10;;;;;;;24.05;18.75;;;19.30;99.90;;;22.11;63.50;97575.75;5009733;28;20684;-40
2022/08/28 04:07:38;;;;;;;29.30;20.02;;;19.30;99.90;;;22.12;63.52;97580.13;5005923;28;20071;-40
2022/08/28 04:10:07;;;;;;;25.10;19.80;;;19.30;99.90;;;22.13;63.28;97579.06;5008468;28;20358;-40
2022/08/28 04:12:35;;;;;;;24.52;19.35;;;19.30;99.90;;;22.14;63.49;97588.00;5007448;28;20046;-40
2022/08/28 04:15:04;;;;;;;23.13;17.95;;;19.40;99.90;;;22.14;63.48;97582.59;5008767;28;20058;-40
2022/08/28 04:17:37;;;;;;;21.92;17.40;;;19.40;99.90;;;22.15;63.35;97584.25;5008514;28;20272;-40
2022/08/28 04:20:07;;;;;;;24.60;18.20;;;19.30;99.90;;;22.15;63.23;97589.66;5007172;28;20049;-40
2022/08/28 04:22:36;;;;;;;24.83;17.98;;;19.30;99.90;;;22.12;63.40;97598.25;5008139;28;20060;-40
2022/08/28 04:25:05;;;;;;;25.67;18.20;;;19.30;99.90;;;22.11;63.17;97589.31;5008059;28;20058;-40
2022/08/28 04:27:33;;;;;;;24.45;18.33;;;19.20;99.90;;;22.11;62.80;97589.31;5008733;28;20044;-40
2022/08/28 04:30:02;;;;;;;24.40;17.85;;;19.20;99.90;;;22.05;62.97;97592.16;5006707;28;20260;-40
2022/08/28 04:32:36;;;;;;;27.35;18.60;;;19.20;99.90;;;22.04;62.92;97594.03;5007629;28;20053;-40
2022/08/28 04:35:07;;;;;;;27.10;16.80;;;19.10;99.90;;;22.01;63.20;97595.34;5007365;28;20049;-41
2022/08/28 04:37:37;;;;;;;23.83;17.90;;;19.20;99.90;;;22.00;63.45;97593.69;5008195;28;20058;-41
2022/08/28 04:40:10;;;;;;;27.52;18.70;;;19.10;99.90;;;22.01;63.52;97597.22;5007738;28;20060;-41
2022/08/28 04:42:38;;;;;;;21.75;17.77;;;19.10;99.90;;;22.02;62.95;97596.16;5007429;28;20052;-41
2022/08/28 04:45:07;;;;;;;22.95;17.73;;;19.10;99.90;;;21.95;63.23;97596.28;5007646;28;20060;-42
2022/08/28 04:47:36;;;;;;;25.75;17.27;;;19.10;99.90;;;21.88;63.20;97598.28;5007668;28;20235;-41
2022/08/28 04:50:06;;;;;;;27.23;18.27;;;19.00;99.90;;;21.89;63.36;97597.22;5007767;28;20080;-42
2022/08/28 04:52:34;;;;;;;25.92;16.20;;;19.00;99.90;;;21.89;62.96;97591.81;5008326;28;20087;-41
2022/08/28 04:55:04;;;;;;;20.30;15.80;;;19.00;99.90;;;21.87;62.96;97593.94;5007566;28;20234;-41
2022/08/28 04:57:32;;;;;;;20.08;15.43;;;18.90;99.90;;;21.85;62.93;97598.75;5006533;28;20046;-41
2022/08/28 05:00:06;;;;;;;23.27;16.17;;;18.90;99.90;;;21.88;63.24;97606.41;5006773;28;20056;-41
2022/08/28 05:02:33;;;;;;;23.08;16.83;;;19.00;99.90;;;21.90;63.29;97606.16;5006876;28;20058;-41
2022/08/28 05:05:03;;;;;;;20.17;15.63;;;19.00;99.90;;;21.91;63.28;97603.22;5006074;28;20053;-41
2022/08/28 05:07:31;;;;;;;20.38;15.82;;;19.00;99.90;;;21.93;63.16;97600.28;5006497;28;20061;-41
2022/08/28 05:09:59;;;;;;;20.90;16.15;;;19.10;99.90;;;21.92;62.91;97615.72;5006353;28;20046;-41
2022/08/28 05:12:27;;;;;;;21.00;14.93;;;19.00;99.90;;;21.90;63.01;97611.59;5008039;28;20276;-41
2022/08/28 05:14:55;;;;;;;24.23;16.27;;;19.00;99.90;;;21.89;62.96;97607.22;5007303;28;20349;-41
2022/08/28 05:17:23;;;;;;;19.08;14.55;;;19.00;99.90;;;21.87;63.02;97615.59;5006769;28;20064;-41
2022/08/28 05:19:53;;;;;;;17.30;14.32;;;18.90;99.90;;;21.89;62.94;97612.63;5006930;28;20053;-41
2022/08/28 05:22:20;;;;;;;19.05;15.98;;;18.90;99.90;;;21.88;62.78;97609.09;5006230;28;20420;-41
2022/08/28 05:24:48;;;;;;;19.50;13.55;;;19.00;99.90;;;21.90;62.98;97609.69;5006555;28;20263;-41
2022/08/28 05:27:16;;;;;;;17.50;13.93;;;19.00;99.90;;;21.91;62.72;97614.06;5007692;28;20060;-41
2022/08/28 05:29:44;;;;;;;19.70;15.00;;;19.00;99.90;;;21.93;63.03;97608.41;5006301;28;20049;-41
2022/08/28 05:32:12;;;;;;;18.08;13.48;;;19.00;99.90;;;21.90;62.80;97619.72;5006895;28;20058;-41
2022/08/28 05:34:39;;;;;;;22.67;15.20;;;19.00;99.90;;;21.90;62.37;97617.00;5007100;28;20064;-43
2022/08/28 05:37:08;;;;;;;15.77;13.70;;;19.10;99.90;;;21.89;62.50;97618.91;5007542;28;20053;-41
2022/08/28 05:39:36;;;;;;;19.15;14.60;;;19.00;99.90;;;21.88;62.94;97611.81;5006645;28;20042;-41
2022/08/28 05:42:04;;;;;;;20.42;14.30;;;19.10;99.90;;;21.92;62.69;97618.41;5006534;28;20053;-41
2022/08/28 05:44:32;;;;;;;21.55;13.88;;;19.00;99.90;;;21.93;62.61;97613.84;5007618;28;20356;-41
2022/08/28 05:47:00;;;;;;;19.75;13.85;;;19.00;99.90;;;21.95;62.62;97614.44;5007046;28;20229;-41
2022/08/28 05:49:27;;;;;;;16.92;13.57;;;19.10;99.90;;;21.97;62.74;97615.03;5005184;28;20352;-41
2022/08/28 05:51:55;;;;;;;21.25;13.23;;;19.20;99.90;;;21.98;62.88;97624.78;5007342;28;20050;-41
2022/08/28 05:54:23;;;;;;;16.95;13.80;;;19.30;99.90;;;21.99;62.99;97627.25;5007527;28;20048;-41
2022/08/28 05:56:51;;;;;;;22.65;13.88;;;19.30;99.90;;;22.03;62.68;97628.44;5007266;28;20045;-41
2022/08/28 05:59:19;;;;;;;17.00;13.02;;;19.30;99.90;;;22.10;62.45;97628.34;5008140;28;20062;-41
2022/08/28 06:01:48;;;;;;;17.98;13.27;;;19.30;99.90;;;22.13;62.86;97625.16;5006215;28;20054;-41
2022/08/28 06:04:25;;;;;;;16.25;11.98;;;19.40;99.90;;;22.19;62.84;97621.47;5007705;28;20056;-42
2022/08/28 06:06:54;;;;;;;21.13;13.70;;;19.40;99.90;;;22.24;62.14;97623.50;5006459;28;20284;-41
2022/08/28 06:09:27;;;;;;;16.58;13.15;;;19.40;99.90;;;22.26;62.49;97634.97;5006035;28;20046;-41
2022/08/28 06:12:01;;;;;;;16.42;11.48;;;19.40;99.90;;;22.27;62.32;97635.78;5006855;28;20374;-41
2022/08/28 06:14:30;;;;;;;19.38;13.80;;;19.50;99.90;;;22.25;61.94;97630.59;5007177;28;20057;-41
2022/08/28 06:16:59;;;;;;;16.83;13.20;;;19.40;99.90;;;22.19;61.85;97629.63;5006010;28;20049;-41
2022/08/28 06:19:30;;;;;;;15.10;12.23;;;19.40;99.90;;;22.16;62.27;97634.72;5010158;28;20312;-42
2022/08/28 06:22:01;;;;;;;17.55;12.77;;;19.30;99.90;;;22.16;62.28;97638.25;5009523;28;20332;-41
2022/08/28 06:24:35;;;;;;;20.05;13.77;;;19.40;99.90;;;22.19;62.32;97640.47;5008529;28;20080;-41
2022/08/28 06:27:03;;;;;;;17.63;13.68;;;19.40;99.90;;;22.22;62.39;97640.00;5009622;28;20056;-41
2022/08/28 06:29:31;;;;;;;18.30;12.63;;;19.40;99.90;;;22.23;62.21;97643.53;5010294;28;20052;-41
2022/08/28 06:32:03;;;;;;;18.17;13.05;;;19.40;99.90;;;22.25;62.22;97640.63;5010099;28;20041;-41
2022/08/28 06:34:31;;;;;;;18.63;12.50;;;19.50;99.90;;;22.24;61.81;97642.47;5010302;28;20058;-41
2022/08/28 06:36:59;;;;;;;18.90;14.15;;;19.50;99.90;;;22.23;62.04;97652.47;5008971;28;20052;-42
2022/08/28 06:39:27;;;;;;;18.00;13.80;;;19.40;99.90;;;22.22;61.80;97650.03;5009172;28;20064;-41
2022/08/28 06:41:55;;;;;;;15.07;12.75;;;19.50;99.90;;;22.23;62.10;97649.78;5009537;28;20054;-41
2022/08/28 06:44:23;;;;;;;21.52;12.80;;;19.50;99.90;;;22.28;61.77;97654.53;5010153;28;20083;-41
2022/08/28 06:46:52;;;;;;;13.90;11.15;;;19.50;99.90;;;22.32;61.81;97657.59;5010337;28;20259;-41
2022/08/28 06:49:21;;;;;;;16.08;11.98;;;19.50;99.90;;;22.33;61.54;97648.41;5008565;28;20265;-41
2022/08/28 06:51:49;;;;;;;14.70;12.10;;;19.50;99.90;;;22.34;61.78;97656.31;5008933;28;20045;-41
2022/08/28 06:54:17;;;;;;;15.65;11.85;;;19.50;99.90;;;22.35;61.59;97663.38;5009535;28;20049;-41
2022/08/28 06:56:51;;;;;;;20.33;12.60;;;19.50;99.90;;;22.35;61.66;97657.13;5007100;28;20367;-42
2022/08/28 06:59:18;;;;;;;15.25;11.82;;;19.50;99.90;;;22.33;61.58;97661.94;5008382;28;20062;-42
2022/08/28 07:01:46;;;;;;;15.13;11.27;;;19.40;99.90;;;22.35;61.43;97657.13;5006402;28;20056;-41
2022/08/28 07:04:15;;;;;;;16.00;12.05;;;19.50;99.90;;;22.33;61.27;97670.94;5008285;28;20054;-41
2022/08/28 07:06:44;;;;;;;15.27;11.38;;;19.40;99.90;;;22.34;61.37;97666.31;5009138;28;20061;-41
2022/08/28 07:09:14;;;;;;;16.02;11.05;;;19.50;99.90;;;22.41;61.62;97672.44;5007848;28;20057;-41
2022/08/28 07:11:47;;;;;;;14.88;11.20;;;19.60;99.90;;;22.40;61.37;97674.31;5008648;28;20075;-42
2022/08/28 07:14:15;;;;;;;15.52;12.40;;;19.60;99.90;;;22.41;61.03;97680.56;5007216;28;20054;-41
2022/08/28 07:16:43;;;;;;;13.02;10.70;;;19.60;99.90;;;22.44;61.00;97676.59;5008497;28;20076;-41
2022/08/28 07:19:12;;;;;;;16.40;12.45;;;19.60;99.90;;;22.38;60.66;97678.34;5008308;28;20050;-41
2022/08/28 07:21:43;;;;;;;15.43;10.27;;;19.50;99.90;;;22.38;60.85;97676.47;5008345;28;20187;-41
2022/08/28 07:24:14;;;;;;;12.43;10.32;;;19.50;99.90;;;22.40;60.97;97676.22;5010088;28;20069;-41
2022/08/28 07:26:44;;;;;;;12.80;10.93;;;19.60;99.90;;;22.43;60.96;97681.19;5006814;28;20045;-41
2022/08/28 07:29:14;;;;;;;15.65;11.13;;;19.70;99.90;;;22.44;60.50;97687.44;5007508;28;20347;-42
2022/08/28 07:31:47;;;;;;;14.30;10.93;;;19.60;99.90;;;22.39;60.59;97685.41;5007475;28;20053;-41
2022/08/28 07:34:18;;;;;;;14.57;11.40;;;19.50;99.90;;;22.35;60.62;97685.09;5007862;28;20058;-41
2022/08/28 07:36:47;;;;;;;14.27;10.40;;;19.40;99.90;;;22.34;60.61;97691.56;5006970;28;20045;-42
2022/08/28 07:39:15;;;;;;;13.05;11.30;;;19.40;99.90;;;22.33;60.77;97691.78;5008312;28;20067;-41
2022/08/28 07:41:45;;;;;;;16.33;11.07;;;19.50;99.90;;;22.30;60.69;97692.28;5007953;28;20048;-41
2022/08/28 07:47:04;;;;;;;12.68;10.90;;;19.40;99.90;;;22.36;61.02;97697.56;5008076;28;20064;-42
2022/08/28 07:49:34;;;;;;;12.60;10.52;;;19.50;99.90;;;22.38;60.97;97697.34;5006359;28;20049;-41
2022/08/28 07:52:04;;;;;;;14.40;10.25;;;19.50;99.90;;;22.41;60.80;97700.41;5007381;28;20054;-41
2022/08/28 07:54:34;;;;;;;13.55;10.50;;;19.60;99.90;;;22.44;60.50;97699.09;5006835;28;20356;-42
2022/08/28 07:57:04;;;;;;;16.90;10.88;;;19.60;99.90;;;22.45;60.45;97700.75;5008008;28;20089;-42
2022/08/28 07:59:32;;;;;;;17.10;11.45;;;19.60;99.90;;;22.56;60.37;97701.81;5005412;28;20068;-41
2022/08/28 08:02:05;;;;;;;12.95;10.43;;;19.70;99.90;;;22.64;60.46;97700.63;5007597;28;20064;-42
2022/08/28 08:04:34;;;;;;;19.05;10.68;;;19.90;99.90;;;22.76;60.76;97704.97;5006719;28;20491;-42
2022/08/28 08:07:03;;;;;;;15.60;10.60;;;20.10;99.90;;;22.89;60.54;97712.03;5007093;28;20064;-42
2022/08/28 08:09:37;;;;;;;11.05;9.95;;;20.20;99.90;;;22.98;60.42;97716.03;5006124;28;20045;-42
2022/08/28 08:12:08;;;;;;;13.95;10.88;;;20.30;99.90;;;23.02;60.11;97715.56;5007237;28;20053;-41
2022/08/28 08:14:39;;;;;;;11.30;9.77;;;20.40;99.90;;;23.07;60.22;97716.53;5005652;28;20057;-41
2022/08/28 08:17:08;;;;;;;16.55;10.70;;;20.50;99.90;;;23.15;59.96;97726.19;5008009;28;20052;-42
2022/08/28 08:19:36;;;;;;;14.02;10.40;;;20.60;99.90;;;23.25;59.98;97726.38;5006929;28;20052;-42
2022/08/28 08:22:04;;;;;;;12.57;10.50;;;20.70;99.90;;;23.37;59.45;97724.44;5007266;28;20057;-42
2022/08/28 08:24:32;;;;;;;12.50;9.88;;;20.70;99.90;;;23.44;59.46;97729.75;5007102;28;20062;-42
2022/08/28 08:27:01;;;;;;;14.40;11.20;;;20.80;99.90;;;23.52;59.49;97725.81;5005618;28;20373;-42
2022/08/28 08:29:34;;;;;;;14.10;11.32;;;20.90;99.90;;;23.59;58.82;97740.06;5007639;28;20159;-42
2022/08/28 08:32:07;;;;;;;14.38;10.18;;;21.00;99.90;;;23.65;58.83;97730.97;5006743;28;20054;-42
2022/08/28 08:34:40;;;;;;;18.00;11.50;;;21.00;99.90;;;23.65;58.94;97736.41;5008164;28;20046;-42
2022/08/28 08:37:11;;;;;;;13.43;10.40;;;21.10;99.90;;;23.61;59.14;97732.50;5007215;28;20366;-44
2022/08/28 08:39:41;;;;;;;13.50;10.18;;;21.10;99.90;;;23.65;58.80;97736.41;5007713;28;20053;-42
2022/08/28 08:42:29;;;;;;;16.95;11.70;;;21.10;99.90;;;23.76;58.60;97742.84;5006478;28;20307;-41
2022/08/28 08:45:02;;;;;;;13.90;10.65;;;21.20;99.90;;;23.80;58.58;97746.75;5007017;28;20050;-42
2022/08/28 08:47:46;;;;;;;;;;;21.30;99.90;;;24.04;58.79;97743.88;5008204;28;20062;-43
2022/08/28 08:50:22;;;;;;;15.30;10.73;;;21.30;99.90;;;24.05;58.04;97746.38;5006252;28;19932;-42
2022/08/28 08:53:34;;;;;;;13.65;10.65;;;21.30;99.90;;;24.02;57.85;97751.47;5005790;28;20053;-43
2022/08/28 08:56:04;;;;;;;11.48;10.30;;;21.30;99.90;;;24.08;57.73;97745.88;5006583;28;20056;-44
2022/08/28 08:58:44;;;;;;;14.65;11.13;;;21.40;99.90;;;24.12;57.27;97747.03;5004648;28;20058;-42
2022/08/28 09:01:38;;;;;;;13.63;11.85;;;21.50;99.90;;;24.11;57.38;97750.81;5007319;28;20061;-43
2022/08/28 09:04:57;;;;;;;13.38;11.27;;;21.40;99.90;;;24.17;57.32;97746.28;5001454;28;20058;-42
2022/08/28 09:07:57;;;;;;;13.00;10.88;;;21.50;99.90;;;24.22;57.64;97751.00;5013535;28;20065;-42
2022/08/28 09:10:43;;;;;;;14.63;12.50;;;21.50;99.90;;;24.28;57.22;97755.47;5012152;28;20057;-41
2022/08/28 09:13:27;;;;;;;13.23;11.70;;;21.60;99.90;;;24.32;56.99;97753.88;5005982;28;20820;-42
2022/08/28 09:15:55;;;;;;;16.27;11.48;;;21.60;99.90;;;24.35;56.58;97753.41;5006662;28;20050;-42
2022/08/28 09:18:30;;;;;;;19.58;12.43;;;21.70;99.90;;;24.37;56.54;97757.53;5007093;28;20378;-42
2022/08/28 09:20:59;;;;;;;15.25;9.93;;;21.60;99.90;;;24.41;56.46;97763.28;4990266;28;20057;-42
2022/08/28 09:23:27;;;;;;;11.60;10.10;;;21.70;99.90;;;24.45;56.21;97755.47;5007059;28;20054;-42
2022/08/28 09:26:00;;;;;;;12.25;10.80;;;21.70;99.90;;;24.53;55.59;97763.25;5005991;28;20060;-42
2022/08/28 09:28:34;;;;;;;13.10;10.73;;;21.80;99.90;;;24.59;55.41;97759.53;5005508;28;20065;-42
2022/08/28 09:31:11;;;;;;;12.07;10.80;;;22.00;99.90;;;24.68;55.45;97758.03;5007639;28;20054;-42
2022/08/28 09:33:43;;;;;;;15.77;12.13;;;22.00;99.90;;;24.74;55.60;97764.38;5006764;28;20049;-42
2022/08/28 09:36:32;;;;;;;12.35;10.88;;;22.00;99.90;;;24.87;55.69;97760.47;5007900;28;20054;-43
2022/08/28 09:39:17;;;;;;;16.35;11.35;;;22.20;99.90;;;24.91;55.21;97762.44;5005424;28;20344;-42
2022/08/28 09:45:03;;;;;;;11.73;10.27;;;22.20;99.90;;;24.94;55.05;97764.66;5006813;28;20060;-42
2022/08/28 09:47:50;;;;;;;16.30;11.57;;;22.20;99.90;;;24.87;54.71;97760.47;5006047;28;20251;-42
2022/08/28 09:50:43;;;;;;;13.90;11.52;;;22.10;99.90;;;24.75;55.23;97766.00;5006205;28;20225;-42
2022/08/28 09:53:10;;;;;;;13.60;10.40;;;22.10;99.90;;;24.73;54.61;97766.25;5008586;28;20054;-42
2022/08/28 09:56:09;;;;;;;12.10;10.13;;;21.90;99.90;;;24.63;54.89;97766.09;5011778;28;20229;-42
2022/08/28 09:58:45;;;;;;;14.57;11.00;;;21.90;99.90;;;24.58;54.75;97763.28;5011924;28;20058;-42
2022/08/28 10:01:37;;;;;;;11.90;9.93;;;21.80;99.90;;;24.63;54.96;97763.38;5009287;28;20057;-42
2022/08/28 10:04:23;;;;;;;11.40;9.88;;;21.80;99.90;;;24.67;54.63;97767.25;5011174;28;20363;-42
2022/08/28 10:07:02;;;;;;;14.45;10.90;;;21.80;99.90;;;24.74;54.53;97772.53;5010191;28;20057;-42
2022/08/28 10:09:59;;;;;;;14.43;10.65;;;21.90;99.90;;;24.81;54.59;97770.44;5010535;28;20050;-42
2022/08/28 10:12:29;;;;;;;13.05;10.90;;;22.00;99.90;;;24.88;54.29;97768.38;5010465;28;20053;-42
2022/08/28 10:15:32;;;;;;;14.40;10.35;;;22.20;99.90;;;24.94;54.32;97767.38;5010494;28;20041;-42
2022/08/28 10:18:06;;;;;;;13.93;9.80;;;22.30;99.90;;;24.99;53.33;97765.78;5010847;28;20041;-42
2022/08/28 10:21:02;;;;;;;;;;;22.20;99.90;;;25.01;53.18;97769.94;5010923;28;20057;-40
2022/08/28 10:23:50;;;;;;;13.35;10.63;;;22.10;99.90;;;24.98;53.87;97766.88;5005934;28;19921;-42
2022/08/28 10:26:45;;;;;;;12.00;10.55;;;22.20;99.90;;;24.95;53.13;97773.63;5009868;28;20072;-42
2022/08/28 10:29:52;;;;;;;11.45;8.75;;;22.20;99.90;;;25.11;53.94;97764.63;5009316;28;20057;-42
2022/08/28 10:32:53;;;;;;;12.25;10.75;;;22.40;99.90;;;25.20;53.45;97765.00;5009621;28;20062;-42
2022/08/28 10:35:34;;;;;;;11.20;9.40;;;22.50;99.90;;;25.18;52.69;97766.31;5010157;28;20045;-42
2022/08/28 10:38:16;;;;;;;11.38;10.18;;;22.60;99.90;;;25.15;52.54;97762.22;5007846;28;20054;-42
2022/08/28 10:41:04;;;;;;;12.35;9.65;;;22.30;99.90;;;25.13;52.64;97762.47;5008404;28;20076;-43